Time;durP1;ratioP1;P1;durP2;ratioP2;P2;SDS_P1;SDS_P2;PMS_P1;PMS_P2;Temp;Humidity;BMP_temperature;BMP_pressure;BME280_temperature;BME280_humidity;BME280_pressure;Samples;Min_cycle;Max_cycle;Signal;HPM_P1;HPM_P2
2022/10/25 00:01:45;;;;;;;22.73;12.52;;;12.60;99.90;;;;;;6083535;23;20049;-86
2022/10/25 00:04:14;;;;;;;24.30;12.63;;;12.50;99.90;;;;;;6085185;23;20025;-85
2022/10/25 00:06:40;;;;;;;25.55;12.32;;;12.60;99.90;;;;;;6084491;23;20027;-86
2022/10/25 00:09:05;;;;;;;25.27;12.95;;;12.50;99.90;;;;;;6083187;23;20461;-86
2022/10/25 00:11:33;;;;;;;35.47;14.48;;;12.50;99.90;;;;;;6082871;23;20014;-85
2022/10/25 00:14:02;;;;;;;28.08;13.63;;;12.70;99.90;;;;;;6061024;23;20041;-86
2022/10/25 00:16:31;;;;;;;24.73;13.07;;;12.40;99.90;;;;;;6084018;23;20021;-85
2022/10/25 00:18:56;;;;;;;30.67;14.00;;;12.60;99.90;;;;;;6085175;23;20021;-85
2022/10/25 00:21:23;;;;;;;20.65;12.88;;;12.50;99.90;;;;;;6086147;23;20010;-86
2022/10/25 00:23:50;;;;;;;27.60;13.80;;;12.60;99.90;;;;;;6083319;23;20025;-86
2022/10/25 00:26:16;;;;;;;32.95;14.02;;;12.50;99.90;;;;;;6082031;23;20049;-86
2022/10/25 00:28:42;;;;;;;34.75;14.55;;;12.50;99.90;;;;;;6085675;23;20089;-86
2022/10/25 00:31:12;;;;;;;32.63;14.20;;;12.50;99.90;;;;;;6083867;23;20029;-86
2022/10/25 00:33:41;;;;;;;29.75;15.18;;;12.40;99.90;;;;;;6083496;23;20518;-85
2022/10/25 00:36:13;;;;;;;27.20;14.85;;;12.40;99.90;;;;;;6060624;23;20406;-86
2022/10/25 00:38:44;;;;;;;30.15;15.25;;;12.40;99.90;;;;;;6085044;23;20022;-86
2022/10/25 00:41:18;;;;;;;31.05;15.70;;;12.50;99.90;;;;;;6082508;23;20013;-85
2022/10/25 00:43:50;;;;;;;33.95;16.60;;;12.50;99.90;;;;;;6082447;23;20531;-85
2022/10/25 00:46:29;;;;;;;35.45;16.77;;;12.60;99.90;;;;;;6082315;23;20013;-85
2022/10/25 00:49:12;;;;;;;35.03;16.85;;;12.50;99.90;;;;;;6086767;23;20082;-85
2022/10/25 00:51:54;;;;;;;32.78;16.77;;;12.70;99.90;;;;;;6060785;23;20088;-85
2022/10/25 00:54:32;;;;;;;35.67;17.73;;;12.90;99.90;;;;;;6083414;23;20040;-85
2022/10/25 00:57:12;;;;;;;30.55;18.20;;;13.00;99.90;;;;;;6083640;23;20550;-85
2022/10/25 00:59:41;;;;;;;39.35;18.85;;;12.90;99.90;;;;;;6084550;23;20042;-85
2022/10/25 01:02:07;;;;;;;34.55;18.52;;;13.10;99.90;;;;;;6084449;23;20281;-86
2022/10/25 01:04:33;;;;;;;38.63;18.17;;;13.10;99.90;;;;;;6084950;23;20319;-85
2022/10/25 01:07:01;;;;;;;34.92;18.35;;;13.10;99.90;;;;;;6060564;23;20014;-86
2022/10/25 01:09:39;;;;;;;;;;;;;;;;;;;;;
2022/10/25 01:12:05;;;;;;;36.15;18.10;;;13.20;99.90;;;;;;6082986;23;20014;-86
2022/10/25 01:14:33;;;;;;;33.83;17.90;;;13.10;99.90;;;;;;6084305;23;20089;-86
2022/10/25 01:17:17;;;;;;;29.45;16.40;;;13.20;99.90;;;;;;6082418;23;20029;-86
2022/10/25 01:19:55;;;;;;;38.47;17.63;;;13.10;99.90;;;;;;6061535;23;20021;-85
2022/10/25 01:22:47;;;;;;;33.03;17.38;;;13.00;99.90;;;;;;6059509;23;20020;-85
2022/10/25 01:25:38;;;;;;;32.85;16.40;;;13.20;99.90;;;;;;6058777;23;20040;-85
2022/10/25 01:28:38;;;;;;;38.50;17.63;;;13.20;99.90;;;;;;6059641;23;20024;-86
2022/10/25 01:31:03;;;;;;;30.05;16.77;;;13.20;99.90;;;;;;6085353;23;20028;-86
2022/10/25 01:33:54;;;;;;;34.03;16.13;;;13.10;99.90;;;;;;6060593;23;20100;-86
2022/10/25 01:36:43;;;;;;;31.52;16.15;;;13.20;99.90;;;;;;6060143;23;20018;-85
2022/10/25 01:39:14;;;;;;;28.52;15.95;;;13.10;99.90;;;;;;6082190;23;20061;-84
2022/10/25 01:42:04;;;;;;;31.08;16.15;;;13.20;99.90;;;;;;6081618;23;20017;-86
2022/10/25 01:45:14;;;;;;;28.08;16.85;;;13.40;99.90;;;;;;6059575;23;20020;-85
2022/10/25 01:47:46;;;;;;;31.10;15.20;;;13.20;99.90;;;;;;6059092;23;20531;-85
2022/10/25 01:50:45;;;;;;;27.60;15.27;;;13.20;99.90;;;;;;6084556;23;20013;-85
2022/10/25 01:53:11;;;;;;;28.48;15.48;;;13.30;99.90;;;;;;6022125;23;20018;-84
2022/10/25 01:55:53;;;;;;;27.25;15.07;;;13.40;99.90;;;;;;6081028;23;20562;-85
2022/10/25 01:58:24;;;;;;;29.95;17.00;;;13.20;99.90;;;;;;6086727;23;20022;-85
2022/10/25 02:01:17;;;;;;;32.55;16.75;;;13.40;99.90;;;;;;6061496;23;20593;-85
2022/10/25 02:03:48;;;;;;;29.50;15.82;;;13.40;99.90;;;;;;6086366;23;20018;-84
2022/10/25 02:06:59;;;;;;;28.27;14.52;;;13.30;99.90;;;;;;6062352;23;20618;-85
2022/10/25 02:09:39;;;;;;;29.20;15.05;;;13.30;99.90;;;;;;6017670;23;20395;-85
2022/10/25 02:12:09;;;;;;;28.95;15.90;;;13.30;99.90;;;;;;6084696;23;20068;-85
2022/10/25 02:14:39;;;;;;;28.85;15.57;;;13.50;99.90;;;;;;6085532;23;20014;-85
2022/10/25 02:17:17;;;;;;;32.38;15.75;;;13.40;99.90;;;;;;6084541;23;20021;-86
2022/10/25 02:19:48;;;;;;;29.80;15.40;;;13.30;99.90;;;;;;6085664;23;20029;-85
2022/10/25 02:22:16;;;;;;;32.17;16.63;;;13.50;99.90;;;;;;6084240;23;20543;-86
2022/10/25 02:24:48;;;;;;;30.02;15.70;;;13.40;99.90;;;;;;6082633;23;20038;-85
2022/10/25 02:27:16;;;;;;;30.15;15.73;;;13.50;99.90;;;;;;6082641;23;20185;-85
2022/10/25 02:29:55;;;;;;;31.52;15.73;;;13.30;99.90;;;;;;6085453;23;20013;-86
2022/10/25 02:32:26;;;;;;;27.65;16.88;;;13.30;99.90;;;;;;6084207;23;20032;-85
2022/10/25 02:34:58;;;;;;;26.58;15.77;;;13.30;99.90;;;;;;6083874;23;20025;-85
2022/10/25 02:37:35;;;;;;;25.77;15.68;;;13.50;99.90;;;;;;6080151;23;20018;-86
2022/10/25 02:40:09;;;;;;;28.98;16.27;;;13.50;99.90;;;;;;6077049;23;20058;-86
2022/10/25 02:42:54;;;;;;;;;;;;;;;;;;;;;
2022/10/25 02:45:22;;;;;;;29.30;16.02;;;13.40;99.90;;;;;;6021286;23;20023;-85
2022/10/25 02:47:51;;;;;;;27.65;16.15;;;13.50;99.90;;;;;;5973776;23;20074;-85
2022/10/25 02:50:23;;;;;;;31.13;17.27;;;13.50;99.90;;;;;;6022949;23;20031;-86
2022/10/25 02:52:57;;;;;;;29.90;16.35;;;13.40;99.90;;;;;;6023276;23;20600;-86
2022/10/25 02:55:41;;;;;;;31.15;16.40;;;13.40;99.90;;;;;;5973154;23;20545;-86
2022/10/25 02:58:06;;;;;;;26.63;15.90;;;13.40;99.90;;;;;;6021445;23;20015;-86
2022/10/25 03:00:32;;;;;;;26.33;16.17;;;13.50;99.90;;;;;;5973693;23;20042;-85
2022/10/25 03:02:58;;;;;;;27.17;16.40;;;13.50;99.90;;;;;;5972543;23;20059;-85
2022/10/25 03:05:29;;;;;;;27.85;15.77;;;13.50;99.90;;;;;;5974074;23;20019;-84
2022/10/25 03:07:54;;;;;;;27.63;16.38;;;13.50;99.90;;;;;;5973688;23;20019;-85
2022/10/25 03:10:31;;;;;;;25.48;15.27;;;13.60;99.90;;;;;;5971094;23;20425;-85
2022/10/25 03:13:00;;;;;;;23.45;14.32;;;13.50;99.90;;;;;;5984415;23;20022;-85
2022/10/25 03:15:26;;;;;;;29.08;14.52;;;13.40;99.90;;;;;;6079141;23;20022;-85
2022/10/25 03:17:58;;;;;;;27.30;13.60;;;13.40;99.90;;;;;;6056494;23;20017;-85
2022/10/25 03:20:23;;;;;;;28.50;13.35;;;13.30;99.90;;;;;;6056829;23;20010;-86
2022/10/25 03:22:57;;;;;;;25.60;12.95;;;13.20;99.90;;;;;;6081228;23;20018;-86
2022/10/25 03:25:23;;;;;;;24.05;12.77;;;13.40;99.90;;;;;;6078126;23;20014;-85
2022/10/25 03:28:06;;;;;;;21.48;11.95;;;13.20;99.90;;;;;;6055277;23;20036;-86
2022/10/25 03:30:43;;;;;;;24.00;12.60;;;13.40;99.90;;;;;;6057492;23;20019;-86
2022/10/25 03:33:18;;;;;;;21.85;12.68;;;13.30;99.90;;;;;;6058648;23;20022;-85
2022/10/25 03:36:08;;;;;;;26.00;13.57;;;13.20;99.90;;;;;;6080845;23;20671;-86
2022/10/25 03:38:40;;;;;;;33.22;14.27;;;13.30;99.90;;;;;;6080061;23;20026;-85
2022/10/25 03:41:09;;;;;;;31.25;14.55;;;13.40;99.90;;;;;;6055114;23;20218;-86
2022/10/25 03:43:38;;;;;;;30.48;15.05;;;13.20;99.90;;;;;;6081343;23;20105;-86
2022/10/25 03:46:12;;;;;;;31.60;15.98;;;13.20;99.90;;;;;;6059087;23;20081;-86
2022/10/25 03:48:38;;;;;;;33.22;16.20;;;13.40;99.90;;;;;;6084353;23;20026;-86
2022/10/25 03:51:06;;;;;;;30.15;16.38;;;13.50;99.90;;;;;;6060021;23;20018;-85
2022/10/25 03:53:35;;;;;;;36.13;16.67;;;13.30;99.90;;;;;;6060863;23;20022;-85
2022/10/25 03:56:09;;;;;;;38.17;17.05;;;13.50;99.90;;;;;;6058031;23;20023;-85
2022/10/25 03:58:39;;;;;;;33.47;16.80;;;13.50;99.90;;;;;;6060239;23;20049;-86
2022/10/25 04:01:12;;;;;;;34.45;15.52;;;13.40;99.90;;;;;;6085376;23;20014;-86
2022/10/25 04:03:38;;;;;;;40.00;16.45;;;13.40;99.90;;;;;;6084073;23;20081;-86
2022/10/25 04:06:06;;;;;;;33.13;15.32;;;13.30;99.90;;;;;;6059875;23;20022;-85
2022/10/25 04:08:37;;;;;;;29.85;15.45;;;13.40;99.90;;;;;;6060197;23;20365;-86
2022/10/25 04:11:07;;;;;;;26.02;14.30;;;13.20;99.90;;;;;;6082227;23;20146;-86
2022/10/25 04:13:35;;;;;;;28.27;15.15;;;13.40;99.90;;;;;;6060974;23;20041;-85
2022/10/25 04:16:06;;;;;;;31.92;15.23;;;13.30;99.90;;;;;;6060400;23;20041;-86
2022/10/25 04:18:42;;;;;;;29.17;15.50;;;13.20;99.90;;;;;;6085536;23;20132;-85
2022/10/25 04:21:12;;;;;;;41.33;15.10;;;13.00;99.90;;;;;;6085487;23;20401;-86
2022/10/25 04:23:38;;;;;;;34.08;14.90;;;13.20;99.90;;;;;;6062546;23;20453;-85
2022/10/25 04:26:13;;;;;;;28.35;13.40;;;13.20;99.90;;;;;;6083491;23;20049;-85
2022/10/25 04:28:39;;;;;;;32.70;14.60;;;13.20;99.90;;;;;;6062216;23;20025;-86
2022/10/25 04:31:04;;;;;;;30.95;14.18;;;13.10;99.90;;;;;;6059983;23;20018;-86
2022/10/25 04:33:46;;;;;;;30.52;13.30;;;13.10;99.90;;;;;;6061276;23;20022;-85
2022/10/25 04:36:16;;;;;;;28.60;13.95;;;13.20;99.90;;;;;;6061881;23;20535;-85
2022/10/25 04:38:49;;;;;;;32.03;14.73;;;13.20;99.90;;;;;;6061562;23;20085;-85
2022/10/25 04:41:19;;;;;;;37.10;14.93;;;13.00;99.90;;;;;;6084510;23;20014;-86
2022/10/25 04:43:49;;;;;;;34.08;14.00;;;13.00;99.90;;;;;;6085156;23;20084;-87
2022/10/25 04:46:17;;;;;;;35.28;13.88;;;13.20;99.90;;;;;;6060372;23;20018;-85
2022/10/25 04:48:48;;;;;;;29.88;13.65;;;13.20;99.90;;;;;;6084924;23;20022;-86
2022/10/25 04:51:14;;;;;;;33.47;14.70;;;13.30;99.90;;;;;;6060000;23;20293;-85
2022/10/25 04:53:43;;;;;;;41.50;15.02;;;13.30;99.90;;;;;;6060638;23;20018;-86
2022/10/25 04:56:13;;;;;;;31.30;14.05;;;13.20;99.90;;;;;;6084151;23;20015;-85
2022/10/25 04:58:49;;;;;;;30.25;14.10;;;13.20;99.90;;;;;;6060266;23;20044;-85
2022/10/25 05:01:22;;;;;;;36.58;14.77;;;13.30;99.90;;;;;;6060287;23;20021;-85
2022/10/25 05:03:53;;;;;;;41.97;16.55;;;13.30;99.90;;;;;;6086708;23;20021;-85
2022/10/25 05:06:34;;;;;;;34.40;15.93;;;13.30;99.90;;;;;;6059919;23;20049;-85
2022/10/25 05:09:06;;;;;;;35.95;15.60;;;13.50;99.90;;;;;;6062335;23;20057;-86
2022/10/25 05:11:50;;;;;;;43.70;16.70;;;13.50;99.90;;;;;;6061322;23;20018;-85
2022/10/25 05:14:15;;;;;;;37.22;15.80;;;13.70;99.90;;;;;;6062584;23;20024;-86
2022/10/25 05:16:50;;;;;;;45.78;16.17;;;13.50;99.90;;;;;;6084327;23;20109;-85
2022/10/25 05:19:16;;;;;;;45.70;16.75;;;13.50;99.90;;;;;;6061796;23;20105;-87
2022/10/25 05:21:44;;;;;;;43.17;16.05;;;13.50;99.90;;;;;;6060498;23;20090;-86
2022/10/25 05:24:18;;;;;;;34.72;15.98;;;13.70;99.90;;;;;;6085257;23;20538;-86
2022/10/25 05:26:47;;;;;;;39.90;15.68;;;13.60;99.90;;;;;;6083341;23;20072;-86
2022/10/25 05:29:25;;;;;;;33.75;15.82;;;13.70;99.90;;;;;;6085813;23;20015;-85
2022/10/25 05:31:54;;;;;;;42.83;16.73;;;13.60;99.90;;;;;;6062212;23;20057;-85
2022/10/25 05:34:26;;;;;;;38.90;16.67;;;13.50;99.90;;;;;;6064275;23;20171;-85
2022/10/25 05:36:52;;;;;;;32.22;16.63;;;13.50;99.90;;;;;;6063471;23;20026;-86
2022/10/25 05:39:21;;;;;;;36.45;15.27;;;13.50;99.90;;;;;;6089109;23;20061;-85
2022/10/25 05:41:49;;;;;;;29.45;15.20;;;13.60;99.90;;;;;;6089428;23;20024;-85
2022/10/25 05:44:18;;;;;;;29.05;14.40;;;13.30;99.90;;;;;;6090474;23;20097;-86
2022/10/25 05:46:54;;;;;;;28.13;14.60;;;13.40;99.90;;;;;;6089170;23;20018;-85
2022/10/25 05:49:25;;;;;;;34.78;15.23;;;13.50;99.90;;;;;;6089447;23;20435;-85
2022/10/25 05:51:53;;;;;;;32.40;14.45;;;13.30;99.90;;;;;;6088659;23;20443;-85
2022/10/25 05:54:23;;;;;;;30.83;14.65;;;13.40;99.90;;;;;;6087415;23;20014;-85
2022/10/25 05:56:49;;;;;;;30.00;13.93;;;13.20;99.90;;;;;;6087757;23;20050;-86
2022/10/25 05:59:23;;;;;;;30.10;13.98;;;13.20;99.90;;;;;;6089398;23;20121;-86
2022/10/25 06:01:57;;;;;;;33.20;14.07;;;13.30;99.90;;;;;;6089028;23;20921;-86
2022/10/25 06:04:26;;;;;;;34.38;14.63;;;13.40;99.90;;;;;;6088561;23;20088;-86
2022/10/25 06:07:01;;;;;;;27.88;14.10;;;13.20;99.90;;;;;;6087213;23;20018;-86
2022/10/25 06:09:26;;;;;;;29.83;12.57;;;13.20;99.90;;;;;;6088105;23;20028;-85
2022/10/25 06:11:52;;;;;;;26.08;12.40;;;13.00;99.90;;;;;;6087321;23;20100;-85
2022/10/25 06:14:26;;;;;;;30.80;13.43;;;13.00;99.90;;;;;;6088262;23;20546;-85
2022/10/25 06:16:52;;;;;;;30.02;13.48;;;13.20;99.90;;;;;;6089114;23;20471;-86
2022/10/25 06:19:18;;;;;;;35.03;13.95;;;13.20;99.90;;;;;;6089941;23;20022;-85
2022/10/25 06:21:44;;;;;;;28.90;13.95;;;13.20;99.90;;;;;;6090405;23;20288;-85
2022/10/25 06:24:09;;;;;;;33.53;13.43;;;13.30;99.90;;;;;;6089726;23;20062;-86
2022/10/25 06:26:35;;;;;;;28.75;13.48;;;13.40;99.90;;;;;;6066595;23;20443;-86
2022/10/25 06:29:03;;;;;;;28.52;13.38;;;13.30;99.90;;;;;;6089373;23;20025;-84
2022/10/25 06:31:30;;;;;;;37.13;13.82;;;13.40;99.90;;;;;;6089121;23;20020;-86
2022/10/25 06:33:58;;;;;;;29.88;12.88;;;13.40;99.90;;;;;;6089370;23;20076;-85
2022/10/25 06:36:25;;;;;;;36.30;13.38;;;13.40;99.90;;;;;;6089715;23;20049;-86
2022/10/25 06:38:57;;;;;;;21.83;10.75;;;13.20;99.90;;;;;;6057977;23;20029;-86
2022/10/25 06:41:35;;;;;;;21.98;10.30;;;13.30;99.90;;;;;;6058028;23;20381;-85
2022/10/25 06:44:01;;;;;;;28.85;11.38;;;13.20;99.90;;;;;;6056880;23;20029;-85
2022/10/25 06:46:31;;;;;;;21.95;10.63;;;13.40;99.90;;;;;;6084250;23;20014;-86
2022/10/25 06:49:04;;;;;;;26.90;10.73;;;13.40;99.90;;;;;;6059252;23;20109;-87
2022/10/25 06:51:33;;;;;;;22.83;10.88;;;13.30;99.90;;;;;;6058528;23;20026;-86
2022/10/25 06:54:06;;;;;;;29.25;10.55;;;13.40;99.90;;;;;;6058704;23;20014;-86
2022/10/25 06:56:40;;;;;;;24.92;9.10;;;13.40;99.90;;;;;;6057291;23;20233;-85
2022/10/25 06:59:07;;;;;;;22.85;10.20;;;13.30;99.90;;;;;;6059244;23;20014;-85
2022/10/25 07:01:38;;;;;;;17.27;8.98;;;13.30;99.90;;;;;;6058578;23;20070;-85
2022/10/25 07:04:06;;;;;;;22.63;10.23;;;13.40;99.90;;;;;;6082795;23;20015;-86
2022/10/25 07:06:37;;;;;;;34.10;10.63;;;13.40;99.90;;;;;;6059136;23;20081;-86
2022/10/25 07:09:11;;;;;;;20.27;9.40;;;13.40;99.90;;;;;;6057877;23;20194;-85
2022/10/25 07:11:44;;;;;;;26.27;9.82;;;13.30;99.90;;;;;;6056130;23;20030;-85
2022/10/25 07:14:22;;;;;;;21.33;9.48;;;13.50;99.90;;;;;;6060516;23;20452;-85
2022/10/25 07:16:56;;;;;;;21.38;9.50;;;13.40;99.90;;;;;;6082833;23;20558;-86
2022/10/25 07:19:29;;;;;;;21.02;9.20;;;13.50;99.90;;;;;;6059975;23;20018;-86
2022/10/25 07:21:58;;;;;;;26.00;8.60;;;13.50;99.90;;;;;;6059901;23;20053;-85
2022/10/25 07:24:32;;;;;;;23.42;8.55;;;13.50;99.90;;;;;;6062713;23;20026;-85
2022/10/25 07:27:06;;;;;;;19.52;9.10;;;13.50;99.90;;;;;;6059623;23;20081;-86
2022/10/25 07:29:42;;;;;;;22.45;8.90;;;13.40;99.90;;;;;;6084547;23;20336;-85
2022/10/25 07:32:11;;;;;;;25.13;8.98;;;13.60;99.90;;;;;;6085487;23;20018;-85
2022/10/25 07:34:37;;;;;;;17.15;8.38;;;13.80;99.90;;;;;;6061819;23;20023;-85
2022/10/25 07:37:07;;;;;;;22.13;8.55;;;13.80;99.90;;;;;;6065410;23;20010;-84
2022/10/25 07:39:39;;;;;;;19.63;8.55;;;13.80;99.90;;;;;;6089535;23;20376;-85
2022/10/25 07:42:10;;;;;;;25.35;9.55;;;13.80;99.90;;;;;;6066366;23;20620;-86
2022/10/25 07:45:03;;;;;;;32.35;9.23;;;13.80;99.90;;;;;;6084759;23;20073;-85
2022/10/25 07:47:32;;;;;;;25.83;8.77;;;13.90;99.90;;;;;;6065586;23;20506;-85
2022/10/25 07:50:00;;;;;;;20.48;8.73;;;13.80;99.90;;;;;;6066602;23;20014;-86
2022/10/25 07:52:26;;;;;;;24.77;9.23;;;14.00;99.90;;;;;;6065733;23;20080;-85
2022/10/25 07:54:51;;;;;;;18.92;8.40;;;14.00;99.90;;;;;;6063897;23;20096;-85
2022/10/25 07:57:25;;;;;;;21.40;9.02;;;13.80;99.90;;;;;;6086111;23;20025;-85
2022/10/25 07:59:54;;;;;;;26.05;8.85;;;14.10;99.90;;;;;;6066243;23;20018;-86
2022/10/25 08:02:22;;;;;;;18.63;7.70;;;13.90;99.90;;;;;;6089447;23;20020;-86
2022/10/25 08:04:53;;;;;;;27.48;8.93;;;13.90;99.90;;;;;;6064750;23;20530;-86
2022/10/25 08:07:21;;;;;;;26.10;9.13;;;13.90;99.90;;;;;;6087880;23;20014;-86
2022/10/25 08:09:47;;;;;;;21.23;9.10;;;14.10;99.90;;;;;;6087990;23;20075;-86
2022/10/25 08:12:21;;;;;;;23.17;9.30;;;14.20;99.90;;;;;;6063756;23;20013;-86
2022/10/25 08:14:49;;;;;;;20.52;8.80;;;14.30;99.90;;;;;;6088460;23;20542;-86
2022/10/25 08:17:16;;;;;;;22.45;8.82;;;14.30;99.90;;;;;;6063303;23;20084;-85
2022/10/25 08:19:42;;;;;;;25.30;9.82;;;14.20;99.90;;;;;;6062885;23;20014;-86
2022/10/25 08:22:08;;;;;;;26.90;9.90;;;14.30;99.90;;;;;;6063545;23;20014;-85
2022/10/25 08:24:34;;;;;;;21.05;9.57;;;14.40;99.90;;;;;;6062474;23;20084;-85
2022/10/25 08:27:03;;;;;;;29.25;9.90;;;14.30;99.90;;;;;;6085631;23;20009;-85
2022/10/25 08:29:29;;;;;;;22.08;9.63;;;14.40;99.90;;;;;;6063107;23;20069;-86
2022/10/25 08:31:57;;;;;;;23.40;10.50;;;14.70;99.90;;;;;;6063436;23;20005;-85
2022/10/25 08:34:26;;;;;;;25.00;10.40;;;14.50;99.90;;;;;;6086268;23;20012;-86
2022/10/25 08:36:54;;;;;;;24.02;10.55;;;14.70;99.90;;;;;;6087530;23;20190;-86
2022/10/25 08:39:28;;;;;;;21.08;9.50;;;14.80;99.90;;;;;;6084852;23;20082;-85
2022/10/25 08:42:01;;;;;;;26.60;9.82;;;14.80;99.90;;;;;;6085050;23;20088;-86
2022/10/25 08:44:57;;;;;;;19.77;9.90;;;14.70;99.90;;;;;;6062545;23;20022;-85
2022/10/25 08:47:35;;;;;;;25.15;9.45;;;14.60;99.90;;;;;;6062099;23;20363;-85
2022/10/25 08:50:12;;;;;;;23.05;9.77;;;14.80;99.90;;;;;;6086347;23;20057;-85
2022/10/25 08:52:57;;;;;;;21.02;9.43;;;14.80;99.90;;;;;;6086921;23;20541;-85
2022/10/25 08:55:35;;;;;;;19.20;8.90;;;14.90;99.90;;;;;;6059270;23;20014;-85
2022/10/25 08:58:20;;;;;;;19.60;8.70;;;14.70;99.90;;;;;;6061262;23;20055;-86
2022/10/25 09:00:48;;;;;;;20.58;8.63;;;14.70;99.90;;;;;;6086489;23;20156;-84
2022/10/25 09:03:30;;;;;;;20.67;9.20;;;14.90;99.90;;;;;;6062545;23;20113;-86
2022/10/25 09:06:05;;;;;;;22.95;9.02;;;14.80;99.90;;;;;;6087225;23;20021;-85
2022/10/25 09:08:47;;;;;;;23.33;9.30;;;15.00;99.90;;;;;;6086947;23;20080;-86
2022/10/25 09:11:48;;;;;;;22.98;8.85;;;14.90;99.90;;;;;;6083391;23;20030;-85
2022/10/25 09:14:29;;;;;;;22.70;9.15;;;15.00;99.90;;;;;;6086760;23;20017;-84
2022/10/25 09:17:22;;;;;;;17.48;9.07;;;15.00;99.90;;;;;;6086368;23;20053;-85
2022/10/25 09:20:23;;;;;;;18.85;9.20;;;15.10;99.90;;;;;;6062831;23;20098;-86
2022/10/25 09:23:31;;;;;;;19.17;8.50;;;15.00;99.90;;;;;;6085486;23;20463;-86
2022/10/25 09:26:21;;;;;;;16.15;8.60;;;14.90;99.90;;;;;;6064589;23;20025;-85
2022/10/25 09:29:37;;;;;;;16.10;8.57;;;15.10;99.90;;;;;;6063395;23;20420;-85
2022/10/25 09:32:14;;;;;;;18.20;7.17;;;15.10;99.90;;;;;;5941492;24;20243;-84
2022/10/25 09:34:44;;;;;;;19.63;7.53;;;15.00;99.90;;;;;;5918403;24;20963;-85
2022/10/25 09:37:20;;;;;;;16.00;6.93;;;14.90;99.90;;;;;;5918721;24;20020;-84
2022/10/25 09:40:02;;;;;;;21.30;7.50;;;14.90;99.90;;;;;;5940879;24;20621;-85
2022/10/25 09:42:41;;;;;;;17.70;7.22;;;14.90;99.90;;;;;;5941492;23;20212;-85
2022/10/25 09:45:19;;;;;;;17.23;7.40;;;15.00;99.90;;;;;;6084680;23;20021;-84
2022/10/25 09:47:51;;;;;;;14.73;7.50;;;14.90;99.90;;;;;;6084709;23;20045;-85
2022/10/25 09:50:31;;;;;;;15.93;6.05;;;15.20;99.90;;;;;;6085459;23;20033;-86
2022/10/25 09:53:01;;;;;;;17.48;6.35;;;15.30;99.90;;;;;;6086070;23;20514;-85
2022/10/25 09:55:45;;;;;;;13.90;5.80;;;15.30;99.90;;;;;;6081768;23;20018;-85
2022/10/25 09:58:29;;;;;;;15.10;6.10;;;15.10;99.90;;;;;;6085626;23;20025;-85
2022/10/25 10:01:03;;;;;;;19.80;6.50;;;15.30;99.90;;;;;;6060658;23;20014;-85
2022/10/25 10:03:36;;;;;;;17.48;7.55;;;15.20;99.90;;;;;;6060631;23;20100;-85
2022/10/25 10:06:18;;;;;;;12.40;5.43;;;15.50;99.90;;;;;;6060384;23;20372;-85
2022/10/25 10:09:08;;;;;;;15.98;5.80;;;15.50;99.90;;;;;;6061420;23;20738;-85
2022/10/25 10:11:35;;;;;;;11.40;5.80;;;15.40;99.90;;;;;;6081483;23;20112;-85
2022/10/25 10:14:11;;;;;;;10.40;5.45;;;15.40;99.90;;;;;;6085118;23;20029;-85
2022/10/25 10:16:53;;;;;;;15.15;5.28;;;15.50;99.90;;;;;;6083863;23;20049;-85
2022/10/25 10:19:28;;;;;;;13.07;5.70;;;15.50;99.90;;;;;;6085063;23;20132;-85
2022/10/25 10:22:07;;;;;;;;;;;15.60;99.90;;;;;;6084392;23;20018;-85
2022/10/25 10:24:39;;;;;;;17.30;5.10;;;15.40;99.90;;;;;;6059175;23;19917;-85
2022/10/25 10:27:08;;;;;;;15.48;5.18;;;15.40;99.90;;;;;;6059921;23;20108;-84
2022/10/25 10:29:37;;;;;;;9.93;4.70;;;15.50;99.90;;;;;;6059323;23;20498;-84
2022/10/25 10:32:41;;;;;;;14.63;5.05;;;15.50;99.90;;;;;;6059953;23;20024;-85
2022/10/25 10:35:26;;;;;;;12.07;4.90;;;15.60;99.90;;;;;;6082840;23;20129;-85
2022/10/25 10:37:51;;;;;;;11.50;4.55;;;15.50;99.90;;;;;;6060030;23;20021;-84
2022/10/25 10:40:20;;;;;;;10.73;4.35;;;15.40;99.90;;;;;;6082534;23;20454;-84
2022/10/25 10:42:46;;;;;;;15.13;4.90;;;15.20;99.90;;;;;;6082158;23;20017;-84
2022/10/25 10:45:19;;;;;;;9.07;4.28;;;15.30;99.90;;;;;;6059812;23;20018;-85
2022/10/25 10:47:50;;;;;;;10.63;4.40;;;15.60;99.90;;;;;;6060217;23;20370;-84
2022/10/25 10:50:19;;;;;;;11.15;4.07;;;16.00;99.90;;;;;;6083744;23;20359;-85
2022/10/25 10:52:46;;;;;;;12.73;4.05;;;16.30;99.90;;;;;;6084346;23;20044;-85
2022/10/25 10:55:47;;;;;;;11.48;3.55;;;16.50;99.90;;;;;;6059042;23;20028;-85
2022/10/25 10:58:26;;;;;;;13.55;3.75;;;16.50;99.90;;;;;;6052788;23;20049;-85
2022/10/25 11:01:07;;;;;;;12.75;3.67;;;16.30;99.90;;;;;;6059176;23;20068;-85
2022/10/25 11:03:39;;;;;;;12.80;3.72;;;16.40;99.90;;;;;;6061037;23;20049;-85
2022/10/25 11:06:29;;;;;;;15.55;4.40;;;16.40;99.90;;;;;;6083367;23;20024;-85
2022/10/25 11:09:18;;;;;;;11.88;4.03;;;16.20;99.90;;;;;;6083531;23;20471;-84
2022/10/25 11:11:44;;;;;;;11.95;3.33;;;16.40;99.90;;;;;;6081826;23;20021;-85
2022/10/25 11:14:14;;;;;;;11.73;3.40;;;16.60;99.90;;;;;;6060814;23;20085;-84
2022/10/25 11:16:57;;;;;;;14.77;3.90;;;16.60;99.90;;;;;;6059649;23;20025;-85
2022/10/25 11:19:42;;;;;;;8.77;3.92;;;16.70;99.90;;;;;;6060861;23;20050;-84
2022/10/25 11:22:14;;;;;;;10.75;3.60;;;16.50;99.90;;;;;;6060511;23;20341;-84
2022/10/25 11:24:58;;;;;;;11.65;3.78;;;16.60;99.90;;;;;;6081624;23;20474;-85
2022/10/25 11:28:00;;;;;;;10.20;3.50;;;16.70;99.90;;;;;;6081790;23;20022;-85
2022/10/25 11:30:36;;;;;;;13.95;4.10;;;16.60;99.90;;;;;;6059771;23;20018;-85
2022/10/25 11:33:35;;;;;;;13.43;3.33;;;16.60;99.90;;;;;;6059233;23;20219;-85
2022/10/25 11:36:19;;;;;;;11.25;4.32;;;16.60;99.90;;;;;;6059349;23;20021;-84
2022/10/25 11:39:06;;;;;;;9.30;3.83;;;16.40;99.90;;;;;;6082214;23;20025;-85
2022/10/25 11:41:57;;;;;;;10.07;3.58;;;16.20;99.90;;;;;;6080749;23;20467;-85
2022/10/25 11:44:34;;;;;;;11.32;3.22;;;16.20;99.90;;;;;;6083503;23;20647;-84
2022/10/25 11:47:14;;;;;;;12.13;3.70;;;16.10;99.90;;;;;;6083464;23;20018;-84
2022/10/25 11:50:26;;;;;;;15.27;3.75;;;16.40;99.90;;;;;;6084113;23;20462;-84
2022/10/25 11:53:01;;;;;;;7.70;3.38;;;16.60;99.90;;;;;;6067580;23;20068;-84
2022/10/25 11:55:27;;;;;;;;;;;16.70;99.90;;;;;;6080722;23;20018;-85
2022/10/25 11:58:07;;;;;;;10.20;3.92;;;16.80;99.90;;;;;;6059157;23;19971;-84
2022/10/25 12:00:53;;;;;;;10.32;3.28;;;16.80;99.90;;;;;;6059228;23;20045;-84
2022/10/25 12:03:50;;;;;;;9.30;3.55;;;17.30;99.90;;;;;;6059479;23;20021;-84
2022/10/25 12:06:38;;;;;;;9.25;3.28;;;16.90;99.90;;;;;;6083085;23;20018;-84
2022/10/25 12:09:09;;;;;;;10.55;3.05;;;16.50;99.90;;;;;;6059434;23;20108;-84
2022/10/25 12:11:46;;;;;;;8.43;3.40;;;16.10;99.90;;;;;;6081837;23;20049;-84
2022/10/25 12:14:18;;;;;;;8.85;3.03;;;16.20;99.90;;;;;;6060949;23;20149;-85
2022/10/25 12:16:44;;;;;;;9.85;3.10;;;16.50;99.90;;;;;;6058941;23;20048;-84
2022/10/25 12:19:23;;;;;;;12.60;3.33;;;16.60;99.90;;;;;;6061032;23;20026;-84
2022/10/25 12:21:57;;;;;;;12.27;3.38;;;16.40;99.90;;;;;;6084830;23;20041;-85
2022/10/25 12:24:32;;;;;;;8.77;3.20;;;16.40;99.90;;;;;;6059101;23;20082;-84
2022/10/25 12:26:58;;;;;;;6.80;2.80;;;16.40;99.90;;;;;;6057701;23;20157;-85
2022/10/25 12:29:33;;;;;;;8.80;2.55;;;16.30;99.90;;;;;;6061090;23;20085;-85
2022/10/25 12:32:02;;;;;;;7.85;2.50;;;16.30;99.90;;;;;;6059673;23;20025;-85
2022/10/25 12:34:42;;;;;;;8.30;2.30;;;16.40;99.90;;;;;;6060720;23;20037;-84
2022/10/25 12:37:23;;;;;;;8.20;2.53;;;16.10;99.90;;;;;;6084117;23;20026;-85
2022/10/25 12:39:50;;;;;;;7.15;2.50;;;16.00;99.90;;;;;;6058163;23;20117;-85
2022/10/25 12:42:28;;;;;;;10.35;2.80;;;15.90;99.90;;;;;;6083848;23;20014;-85
2022/10/25 12:45:31;;;;;;;9.23;2.70;;;16.00;99.90;;;;;;6060544;23;20014;-85
2022/10/25 12:48:33;;;;;;;9.23;2.55;;;16.00;99.90;;;;;;6055491;23;20025;-84
2022/10/25 12:51:10;;;;;;;7.65;2.70;;;16.10;99.90;;;;;;6060716;23;20391;-85
2022/10/25 12:53:52;;;;;;;8.10;2.42;;;16.60;99.90;;;;;;6083681;23;20021;-84
2022/10/25 12:56:51;;;;;;;9.65;3.05;;;16.70;99.90;;;;;;6057576;23;20018;-84
2022/10/25 12:59:35;;;;;;;10.35;3.20;;;16.70;99.90;;;;;;6084279;23;20186;-85
2022/10/25 13:02:39;;;;;;;7.00;2.90;;;16.90;99.90;;;;;;6060660;23;20010;-84
2022/10/25 13:05:36;;;;;;;7.25;2.80;;;17.00;99.90;;;;;;6084748;23;20375;-84
2022/10/25 13:08:05;;;;;;;9.68;2.92;;;16.90;99.90;;;;;;6082926;23;20025;-85
2022/10/25 13:10:34;;;;;;;7.07;2.83;;;17.30;99.90;;;;;;6057509;23;20455;-85
2022/10/25 13:13:03;;;;;;;12.05;3.35;;;17.20;99.90;;;;;;6060290;23;20042;-85
2022/10/25 13:15:49;;;;;;;9.95;3.00;;;17.10;99.90;;;;;;6059390;23;20018;-84